createdAt,value
2019-01-30T00:00:01.532Z,1.00
2019-01-30T00:01:12.925Z,1.00
2019-01-30T00:02:18.177Z,1.00
2019-01-30T00:03:24.298Z,1.00
2019-01-30T00:04:29.466Z,1.00
2019-01-30T00:05:34.787Z,1.00
2019-01-30T00:06:39.954Z,1.00
2019-01-30T00:07:45.107Z,1.00
2019-01-30T00:08:50.178Z,1.00
2019-01-30T00:09:55.273Z,1.00
2019-01-30T00:11:00.444Z,1.00
2019-01-30T00:12:05.641Z,1.00
2019-01-30T00:13:10.923Z,1.00
2019-01-30T00:14:16.148Z,1.00
2019-01-30T00:15:21.744Z,1.00
2019-01-30T00:16:26.935Z,1.00
2019-01-30T00:17:32.202Z,1.00
2019-01-30T00:18:37.350Z,1.00
2019-01-30T00:19:42.457Z,0.90
2019-01-30T00:20:47.720Z,1.00
2019-01-30T00:21:52.955Z,0.90
2019-01-30T00:22:58.175Z,0.90
2019-01-30T00:24:04.421Z,0.90
2019-01-30T00:25:09.759Z,0.90
2019-01-30T00:26:15.085Z,0.90
2019-01-30T00:27:20.448Z,0.90
2019-01-30T00:28:25.661Z,0.90
2019-01-30T00:29:30.935Z,0.90
2019-01-30T00:32:23.585Z,0.90
2019-01-30T00:33:37.139Z,0.90
2019-01-30T00:34:49.910Z,0.90
2019-01-30T00:36:31.222Z,0.90
2019-01-30T00:37:41.803Z,0.90
2019-01-30T00:39:25.357Z,0.90
2019-01-30T00:40:59.722Z,0.80
2019-01-30T00:42:11.435Z,0.80
2019-01-30T00:43:44.010Z,0.80
2019-01-30T00:45:12.466Z,0.80
2019-01-30T00:46:48.311Z,0.80
2019-01-30T00:48:00.118Z,0.80
2019-01-30T00:49:09.477Z,0.80
2019-01-30T00:50:43.643Z,0.80
2019-01-30T00:52:15.137Z,0.90
2019-01-30T00:53:44.394Z,0.90
2019-01-30T00:55:28.993Z,0.90
2019-01-30T00:56:55.151Z,0.80
2019-01-30T00:58:05.959Z,0.90
2019-01-30T00:59:58.099Z,0.80
2019-01-30T01:01:16.234Z,0.80
2019-01-30T01:02:22.737Z,0.90
2019-01-30T01:03:27.931Z,0.90
2019-01-30T01:04:33.088Z,0.90
2019-01-30T01:05:38.256Z,0.80
2019-01-30T01:06:43.342Z,0.80
2019-01-30T01:07:49.800Z,0.80
2019-01-30T01:08:54.962Z,0.80
2019-01-30T01:10:01.165Z,0.80
2019-01-30T01:11:06.387Z,0.80
2019-01-30T01:12:11.578Z,0.80
2019-01-30T01:13:16.767Z,0.80
2019-01-30T01:14:21.825Z,0.80
2019-01-30T01:15:27.075Z,0.80
2019-01-30T01:16:32.222Z,0.80
2019-01-30T01:17:37.505Z,0.80
2019-01-30T01:18:42.694Z,0.80
2019-01-30T01:19:47.772Z,0.80
2019-01-30T01:20:53.086Z,0.80
2019-01-30T01:21:58.235Z,0.80
2019-01-30T01:23:03.420Z,0.80
2019-01-30T01:24:08.516Z,0.80
2019-01-30T01:25:15.070Z,0.80
2019-01-30T01:26:20.315Z,0.80
2019-01-30T01:27:25.422Z,0.80
2019-01-30T01:28:30.671Z,0.80
2019-01-30T01:29:35.790Z,0.80
2019-01-30T01:30:40.888Z,0.70
2019-01-30T01:31:46.078Z,0.70
2019-01-30T01:32:51.436Z,0.70
2019-01-30T01:33:56.594Z,0.70
2019-01-30T01:35:01.828Z,0.70
2019-01-30T01:36:07.093Z,0.80
2019-01-30T01:37:14.658Z,0.70
2019-01-30T01:38:20.938Z,0.70
2019-01-30T01:39:26.118Z,0.70
2019-01-30T01:40:31.349Z,0.70
2019-01-30T01:41:36.669Z,0.70
2019-01-30T01:42:42.989Z,0.70
2019-01-30T01:43:48.195Z,0.70
2019-01-30T01:44:53.417Z,0.70
2019-01-30T01:45:58.592Z,0.80
2019-01-30T01:47:03.814Z,0.70
2019-01-30T01:48:09.010Z,0.80
2019-01-30T01:49:14.188Z,0.70
2019-01-30T01:50:20.636Z,0.70
2019-01-30T01:51:25.731Z,0.70
2019-01-30T01:52:30.966Z,0.80
2019-01-30T01:53:36.032Z,0.70
2019-01-30T01:54:41.265Z,0.70
2019-01-30T01:55:46.460Z,0.70
2019-01-30T01:56:51.663Z,0.70
2019-01-30T01:57:56.831Z,0.70
2019-01-30T01:59:02.076Z,0.80
2019-01-30T02:00:35.205Z,0.80
2019-01-30T02:01:33.814Z,0.70
2019-01-30T02:02:39.193Z,0.80
2019-01-30T02:03:44.362Z,0.70
2019-01-30T02:04:52.160Z,0.80
2019-01-30T02:05:57.460Z,0.80
2019-01-30T02:07:02.544Z,0.80
2019-01-30T02:08:07.697Z,0.80
2019-01-30T02:09:12.778Z,0.80
2019-01-30T02:10:20.044Z,0.80
2019-01-30T02:11:25.200Z,0.80
2019-01-30T02:12:30.345Z,0.80
2019-01-30T02:13:35.419Z,0.80
2019-01-30T02:14:40.573Z,0.80
2019-01-30T02:15:45.742Z,0.80
2019-01-30T02:16:51.191Z,0.80
2019-01-30T02:17:56.336Z,0.80
2019-01-30T02:19:01.410Z,0.80
2019-01-30T02:20:09.610Z,0.80
2019-01-30T02:21:14.784Z,0.80
2019-01-30T02:22:19.961Z,0.80
2019-01-30T02:23:25.059Z,0.80
2019-01-30T02:24:30.348Z,0.80
2019-01-30T02:25:35.561Z,0.80
2019-01-30T02:26:40.821Z,0.80
2019-01-30T02:27:46.948Z,0.80
2019-01-30T02:28:52.195Z,0.80
2019-01-30T02:29:57.448Z,0.80
2019-01-30T02:31:02.743Z,0.80
2019-01-30T02:32:07.878Z,0.80
2019-01-30T02:33:13.044Z,0.80
2019-01-30T02:34:18.111Z,0.80
2019-01-30T02:35:23.643Z,0.80
2019-01-30T02:36:28.894Z,0.80
2019-01-30T02:37:34.167Z,0.80
2019-01-30T02:38:39.352Z,0.80
2019-01-30T02:39:44.588Z,0.80
2019-01-30T02:40:49.974Z,0.80
2019-01-30T02:41:55.189Z,0.80
2019-01-30T02:43:00.348Z,0.80
2019-01-30T02:44:05.525Z,0.80
2019-01-30T02:45:13.439Z,0.80
2019-01-30T02:46:18.704Z,0.80
2019-01-30T02:47:23.942Z,0.80
2019-01-30T02:48:29.226Z,0.80
2019-01-30T02:49:34.408Z,0.80
2019-01-30T02:50:39.667Z,0.80
2019-01-30T02:51:44.902Z,0.80
2019-01-30T02:52:50.132Z,0.80
2019-01-30T02:53:55.411Z,0.80
2019-01-30T02:55:00.588Z,0.80
2019-01-30T02:56:05.951Z,0.80
2019-01-30T02:57:11.178Z,0.80
2019-01-30T02:58:16.378Z,0.80
2019-01-30T02:59:21.554Z,0.80
2019-01-30T03:00:29.062Z,0.70
2019-01-30T03:01:41.018Z,0.80
2019-01-30T03:02:46.154Z,0.80
2019-01-30T03:03:51.370Z,0.70
2019-01-30T03:04:56.487Z,0.80
2019-01-30T03:06:01.609Z,0.70
2019-01-30T03:07:06.757Z,0.70
2019-01-30T03:08:11.978Z,0.70
2019-01-30T03:09:17.098Z,0.70
2019-01-30T03:10:22.817Z,0.70
2019-01-30T03:11:27.862Z,0.70
2019-01-30T03:12:33.192Z,0.70
2019-01-30T03:13:38.404Z,0.70
2019-01-30T03:14:43.565Z,0.70
2019-01-30T03:15:48.728Z,0.70
2019-01-30T03:16:56.752Z,0.70
2019-01-30T03:18:01.886Z,0.70
2019-01-30T03:19:07.121Z,0.70
2019-01-30T03:20:17.722Z,0.70
2019-01-30T03:21:22.840Z,0.70
2019-01-30T03:22:27.991Z,0.70
2019-01-30T03:23:33.143Z,0.70
2019-01-30T03:24:38.411Z,0.70
2019-01-30T03:25:43.620Z,0.70
2019-01-30T03:26:48.875Z,0.70
2019-01-30T03:27:54.200Z,0.70
2019-01-30T03:28:59.326Z,0.70
2019-01-30T03:30:05.987Z,0.70
2019-01-30T03:31:17.914Z,0.70
2019-01-30T03:32:17.881Z,0.70
2019-01-30T03:33:23.085Z,0.70
2019-01-30T03:34:28.363Z,0.70
2019-01-30T03:35:33.610Z,0.70
2019-01-30T03:36:38.809Z,0.70
2019-01-30T03:37:44.057Z,0.70
2019-01-30T03:38:49.277Z,0.70
2019-01-30T03:39:56.619Z,0.70
2019-01-30T03:41:01.913Z,0.70
2019-01-30T03:42:07.076Z,0.70
2019-01-30T03:43:12.226Z,0.70
2019-01-30T03:44:17.350Z,0.70
2019-01-30T03:45:23.293Z,0.70
2019-01-30T03:46:28.416Z,0.70
2019-01-30T03:47:33.639Z,0.70
2019-01-30T03:48:38.799Z,0.70
2019-01-30T03:49:43.969Z,0.70
2019-01-30T03:50:49.253Z,0.70
2019-01-30T03:51:54.517Z,0.70
2019-01-30T03:52:59.634Z,0.70
2019-01-30T03:54:04.850Z,0.70
2019-01-30T03:55:11.254Z,0.70
2019-01-30T03:56:16.580Z,0.70
2019-01-30T03:57:21.853Z,0.70
2019-01-30T03:58:26.994Z,0.70
2019-01-30T03:59:32.145Z,0.70
2019-01-30T04:00:37.352Z,0.70
2019-01-30T04:01:42.640Z,0.70
2019-01-30T04:02:47.825Z,0.70
2019-01-30T04:03:53.110Z,0.70
2019-01-30T04:04:58.259Z,0.70
2019-01-30T04:06:03.534Z,0.70
2019-01-30T04:07:08.662Z,0.70
2019-01-30T04:08:13.821Z,0.70
2019-01-30T04:09:18.883Z,0.70
2019-01-30T04:10:24.122Z,0.70
2019-01-30T04:11:29.330Z,0.70
2019-01-30T04:12:34.558Z,0.70
2019-01-30T04:13:39.814Z,0.70
2019-01-30T04:14:44.998Z,0.70
2019-01-30T04:15:50.206Z,0.70
2019-01-30T04:16:57.701Z,0.70
2019-01-30T04:18:02.780Z,0.70
2019-01-30T04:19:07.830Z,0.70
2019-01-30T04:20:14.324Z,0.70
2019-01-30T04:21:19.389Z,0.70
2019-01-30T04:22:24.491Z,0.60
2019-01-30T04:23:29.638Z,0.70
2019-01-30T04:24:34.767Z,0.70
2019-01-30T04:25:40.298Z,0.70
2019-01-30T04:26:45.520Z,0.70
2019-01-30T04:27:50.763Z,0.70
2019-01-30T04:28:58.660Z,0.70
2019-01-30T04:30:04.474Z,0.70
2019-01-30T04:31:09.656Z,0.70
2019-01-30T04:32:14.793Z,0.70
2019-01-30T04:33:19.939Z,0.70
2019-01-30T04:34:25.220Z,0.70
2019-01-30T04:35:30.491Z,0.70
2019-01-30T04:36:35.665Z,0.70
2019-01-30T04:37:40.858Z,0.70
2019-01-30T04:38:46.032Z,0.70
2019-01-30T04:39:51.223Z,0.70
2019-01-30T04:40:56.603Z,0.70
2019-01-30T04:42:01.806Z,0.70
2019-01-30T04:43:06.919Z,0.70
2019-01-30T04:44:12.153Z,0.70
2019-01-30T04:45:22.783Z,0.70
2019-01-30T04:46:27.868Z,0.70
2019-01-30T04:47:33.034Z,0.70
2019-01-30T04:48:38.171Z,0.70
2019-01-30T04:49:43.330Z,0.70
2019-01-30T04:50:48.583Z,0.70
2019-01-30T04:51:56.227Z,0.70
2019-01-30T04:53:01.454Z,0.70
2019-01-30T04:54:06.690Z,0.70
2019-01-30T04:55:11.946Z,0.70
2019-01-30T04:56:17.082Z,0.70
2019-01-30T04:57:22.387Z,0.70
2019-01-30T04:58:27.477Z,0.70
2019-01-30T04:59:32.651Z,0.70
2019-01-30T05:00:37.866Z,0.70
2019-01-30T05:01:49.545Z,0.70
2019-01-30T05:02:49.871Z,0.70
2019-01-30T05:03:55.199Z,0.70
2019-01-30T05:05:00.399Z,0.70
2019-01-30T05:06:05.836Z,0.70
2019-01-30T05:07:11.033Z,0.70
2019-01-30T05:08:16.115Z,0.70
2019-01-30T05:09:21.183Z,0.70
2019-01-30T05:10:26.273Z,0.70
2019-01-30T05:11:31.493Z,0.70
2019-01-30T05:12:36.594Z,0.70
2019-01-30T05:13:41.785Z,0.70
2019-01-30T05:14:47.037Z,0.70
2019-01-30T05:15:53.155Z,0.70
2019-01-30T05:16:58.338Z,0.70
2019-01-30T05:18:03.469Z,0.70
2019-01-30T05:19:08.657Z,0.70
2019-01-30T05:20:15.332Z,0.70
2019-01-30T05:21:20.586Z,0.60
2019-01-30T05:22:25.751Z,0.70
2019-01-30T05:23:31.030Z,0.70
2019-01-30T05:24:36.228Z,0.70
2019-01-30T05:25:41.490Z,0.70
2019-01-30T05:26:46.662Z,0.70
2019-01-30T05:27:51.838Z,0.70
2019-01-30T05:28:56.984Z,0.70
2019-01-30T05:30:02.194Z,0.70
2019-01-30T05:31:07.572Z,0.70
2019-01-30T05:32:12.776Z,0.70
2019-01-30T05:33:17.900Z,0.70
2019-01-30T05:34:23.167Z,0.60
2019-01-30T05:35:28.414Z,0.60
2019-01-30T05:36:33.755Z,0.60
2019-01-30T05:37:39.003Z,0.60
2019-01-30T05:38:44.158Z,0.60
2019-01-30T05:39:49.299Z,0.60
2019-01-30T05:40:54.521Z,0.60
2019-01-30T05:42:01.377Z,0.60
2019-01-30T05:43:06.583Z,0.60
2019-01-30T05:44:11.822Z,0.60
2019-01-30T05:45:17.161Z,0.60
2019-01-30T05:46:22.409Z,0.60
2019-01-30T05:47:27.716Z,0.60
2019-01-30T05:48:32.903Z,0.60
2019-01-30T05:49:38.133Z,0.60
2019-01-30T05:50:43.321Z,0.60
2019-01-30T05:51:48.583Z,0.60
2019-01-30T05:52:53.804Z,0.60
2019-01-30T05:53:59.018Z,0.60
2019-01-30T05:55:04.948Z,0.50
2019-01-30T05:56:10.034Z,0.50
2019-01-30T05:57:15.271Z,0.50
2019-01-30T05:58:20.390Z,0.60
2019-01-30T05:59:25.576Z,0.50
2019-01-30T06:00:43.266Z,0.50
2019-01-30T06:01:48.478Z,0.50
2019-01-30T06:02:53.730Z,0.50
2019-01-30T06:03:58.913Z,0.50
2019-01-30T06:05:04.428Z,0.50
2019-01-30T06:06:09.616Z,0.50
2019-01-30T06:07:14.792Z,0.50
2019-01-30T06:08:19.964Z,0.50
2019-01-30T06:09:25.011Z,0.50
2019-01-30T06:10:30.131Z,0.50
2019-01-30T06:11:35.438Z,0.50
2019-01-30T06:12:40.682Z,0.50
2019-01-30T06:13:45.827Z,0.50
2019-01-30T06:14:52.555Z,0.60
2019-01-30T06:15:57.884Z,0.60
2019-01-30T06:17:03.148Z,0.60
2019-01-30T06:18:08.352Z,0.60
2019-01-30T06:19:13.583Z,0.60
2019-01-30T06:20:22.571Z,0.60
2019-01-30T06:21:28.036Z,0.50
2019-01-30T06:22:33.661Z,0.60
2019-01-30T06:23:38.793Z,0.60
2019-01-30T06:24:43.948Z,0.60
2019-01-30T06:25:49.332Z,0.60
2019-01-30T06:26:54.586Z,0.60
2019-01-30T06:27:59.890Z,0.60
2019-01-30T06:29:05.210Z,0.60
2019-01-30T06:30:12.093Z,0.60
2019-01-30T06:31:17.237Z,0.60
2019-01-30T06:32:22.577Z,0.60
2019-01-30T06:33:27.818Z,0.60
2019-01-30T06:34:33.011Z,0.60
2019-01-30T06:35:38.506Z,0.60
2019-01-30T06:36:43.726Z,0.60
2019-01-30T06:37:48.826Z,0.60
2019-01-30T06:38:54.126Z,0.60
2019-01-30T06:39:59.601Z,0.60
2019-01-30T06:41:06.139Z,0.60
2019-01-30T06:42:11.319Z,0.70
2019-01-30T06:43:16.530Z,0.70
2019-01-30T06:44:21.673Z,0.70
2019-01-30T06:45:26.815Z,0.60
2019-01-30T06:46:31.863Z,0.60
2019-01-30T06:47:37.051Z,0.60
2019-01-30T06:48:42.303Z,0.60
2019-01-30T06:49:47.471Z,0.70
2019-01-30T06:50:52.620Z,0.70
2019-01-30T06:51:58.044Z,0.60
2019-01-30T06:53:03.164Z,0.70
2019-01-30T06:54:08.313Z,0.70
2019-01-30T06:55:13.371Z,0.70
2019-01-30T06:56:18.473Z,0.70
2019-01-30T06:57:23.724Z,0.70
2019-01-30T06:58:28.885Z,0.70
2019-01-30T06:59:33.987Z,0.70
2019-01-30T07:00:39.257Z,0.70
2019-01-30T07:01:44.589Z,0.70
2019-01-30T07:02:49.869Z,0.70
2019-01-30T07:03:55.115Z,0.70
2019-01-30T07:05:00.305Z,0.70
2019-01-30T07:06:07.720Z,0.70
2019-01-30T07:07:12.522Z,0.70
2019-01-30T07:08:17.792Z,0.70
2019-01-30T07:09:23.074Z,0.70
2019-01-30T07:10:28.936Z,0.70
2019-01-30T07:11:34.158Z,0.70
2019-01-30T07:12:39.391Z,0.70
2019-01-30T07:13:44.666Z,0.70
2019-01-30T07:14:49.844Z,0.70
2019-01-30T07:15:55.017Z,0.70
2019-01-30T07:17:00.150Z,0.70
2019-01-30T07:18:05.501Z,0.70
2019-01-30T07:19:10.721Z,0.70
2019-01-30T07:20:16.100Z,0.70
2019-01-30T07:21:21.179Z,0.70
2019-01-30T07:22:26.367Z,0.70
2019-01-30T07:23:31.584Z,0.70
2019-01-30T07:24:36.853Z,0.70
2019-01-30T07:25:42.106Z,0.70
2019-01-30T07:26:47.266Z,0.70
2019-01-30T07:27:52.503Z,0.80
2019-01-30T07:28:57.687Z,0.70
2019-01-30T07:30:02.872Z,0.70
2019-01-30T07:31:08.008Z,0.80
2019-01-30T07:32:14.500Z,0.80
2019-01-30T07:33:20.620Z,0.70
2019-01-30T07:34:25.872Z,0.70
2019-01-30T07:35:31.038Z,0.80
2019-01-30T07:36:36.298Z,0.80
2019-01-30T07:37:41.525Z,0.80
2019-01-30T07:38:46.781Z,0.80
2019-01-30T07:39:52.004Z,0.80
2019-01-30T07:40:57.178Z,0.80
2019-01-30T07:42:03.545Z,0.80
2019-01-30T07:43:08.768Z,0.90
2019-01-30T07:44:14.018Z,0.80
2019-01-30T07:45:20.562Z,0.80
2019-01-30T07:46:25.823Z,0.90
2019-01-30T07:47:31.239Z,0.80
2019-01-30T07:48:41.061Z,0.80
2019-01-30T07:49:46.254Z,0.80
2019-01-30T07:50:51.471Z,0.90
2019-01-30T07:51:56.683Z,0.90
2019-01-30T07:53:01.851Z,0.90
2019-01-30T07:54:06.997Z,0.90
2019-01-30T07:55:14.200Z,0.90
2019-01-30T07:56:19.474Z,0.90
2019-01-30T07:57:24.734Z,0.90
2019-01-30T07:58:30.003Z,0.90
2019-01-30T07:59:35.230Z,1.00
2019-01-30T08:00:40.473Z,1.00
2019-01-30T08:01:45.720Z,0.90
2019-01-30T08:02:53.734Z,1.00
2019-01-30T08:03:59.068Z,1.00
2019-01-30T08:05:05.138Z,1.00
2019-01-30T08:06:10.403Z,1.00
2019-01-30T08:07:15.667Z,1.00
2019-01-30T08:08:20.906Z,1.00
2019-01-30T08:09:26.161Z,1.10
2019-01-30T08:10:31.314Z,1.10
2019-01-30T08:11:36.552Z,1.10
2019-01-30T08:12:41.794Z,1.10
2019-01-30T08:13:46.965Z,1.10
2019-01-30T08:14:55.311Z,1.10
2019-01-30T08:20:38.526Z,1.20
2019-01-30T08:21:43.894Z,1.20
2019-01-30T08:22:52.231Z,1.20
2019-01-30T08:23:57.629Z,1.20
2019-01-30T08:25:03.172Z,1.30
2019-01-30T08:26:08.647Z,1.30
2019-01-30T08:27:14.441Z,1.40
2019-01-30T08:28:20.127Z,1.30
2019-01-30T08:29:25.602Z,1.40
2019-01-30T08:30:32.013Z,1.50
2019-01-30T08:31:37.522Z,1.50
2019-01-30T08:32:43.049Z,1.50
2019-01-30T08:33:53.448Z,1.50
2019-01-30T08:34:58.613Z,1.50
2019-01-30T08:36:04.009Z,1.50
2019-01-30T08:37:10.255Z,1.50
2019-01-30T08:38:15.528Z,1.50
2019-01-30T08:39:20.770Z,1.40
2019-01-30T08:40:33.285Z,1.40
2019-01-30T08:41:38.593Z,1.40
2019-01-30T08:42:43.796Z,1.40
2019-01-30T08:43:52.684Z,1.40
2019-01-30T08:44:59.140Z,1.40
2019-01-30T08:46:04.396Z,1.40
2019-01-30T08:47:09.666Z,1.40
2019-01-30T08:48:15.171Z,1.40
2019-01-30T08:49:20.347Z,1.50
2019-01-30T08:50:25.845Z,1.40
2019-01-30T08:51:30.983Z,1.40
2019-01-30T08:52:36.270Z,1.40
2019-01-30T08:53:41.460Z,1.50
2019-01-30T08:54:46.589Z,1.50
2019-01-30T08:55:52.842Z,1.40
2019-01-30T08:56:58.088Z,1.50
2019-01-30T08:58:03.376Z,1.40
2019-01-30T08:59:08.958Z,1.50
2019-01-30T09:00:17.582Z,1.50
2019-01-30T09:01:22.759Z,1.50
2019-01-30T09:02:28.074Z,1.60
2019-01-30T09:03:33.183Z,1.60
2019-01-30T09:04:38.327Z,1.60
2019-01-30T09:05:43.476Z,1.60
2019-01-30T09:06:48.724Z,1.60
2019-01-30T09:07:53.876Z,1.60
2019-01-30T09:08:59.116Z,1.70
2019-01-30T09:10:05.826Z,1.70
2019-01-30T09:11:10.996Z,1.60
2019-01-30T09:12:16.265Z,1.70
2019-01-30T09:13:21.440Z,1.70
2019-01-30T09:14:26.643Z,1.70
2019-01-30T09:15:31.748Z,1.70
2019-01-30T09:16:45.310Z,1.70
2019-01-30T09:18:16.250Z,1.80
2019-01-30T09:19:45.312Z,1.70
2019-01-30T09:20:50.450Z,1.70
2019-01-30T09:21:56.772Z,1.80
2019-01-30T09:23:02.024Z,1.80
2019-01-30T09:24:07.317Z,1.80
2019-01-30T09:25:15.088Z,1.80
2019-01-30T09:26:20.296Z,1.70
2019-01-30T09:27:25.570Z,1.80
2019-01-30T09:28:30.687Z,1.70
2019-01-30T09:29:35.841Z,1.80
2019-01-30T09:30:42.245Z,1.80
2019-01-30T09:31:48.489Z,1.80
2019-01-30T09:32:55.460Z,1.80
2019-01-30T09:34:04.661Z,1.90
2019-01-30T09:35:12.260Z,1.90
2019-01-30T09:36:19.226Z,1.90
2019-01-30T09:37:27.346Z,2.00
2019-01-30T09:38:39.532Z,2.00
2019-01-30T09:39:48.631Z,1.90
2019-01-30T09:40:59.983Z,1.90
2019-01-30T09:42:13.844Z,1.90
2019-01-30T09:43:17.315Z,1.90
2019-01-30T09:44:23.249Z,1.90
2019-01-30T09:45:28.592Z,1.90
2019-01-30T09:46:39.533Z,1.90
2019-01-30T09:47:44.652Z,1.80
2019-01-30T09:48:56.423Z,1.90
2019-01-30T09:50:03.031Z,1.90
2019-01-30T09:51:35.139Z,1.90
2019-01-30T09:52:43.183Z,1.90
2019-01-30T09:54:15.163Z,1.90
2019-01-30T10:00:27.561Z,1.90
2019-01-30T10:02:03.910Z,1.90
2019-01-30T10:05:24.530Z,1.90
2019-01-30T10:35:00.960Z,1.90
2019-01-30T10:36:35.688Z,1.90
2019-01-30T10:40:06.487Z,2.00
2019-01-30T10:43:41.609Z,2.00
2019-01-30T10:45:31.771Z,2.10
2019-01-30T10:46:37.253Z,2.10
2019-01-30T10:47:42.351Z,2.10
2019-01-30T10:48:47.435Z,2.10
2019-01-30T10:51:27.778Z,2.10
2019-01-30T10:52:34.204Z,2.10
2019-01-30T11:00:57.433Z,2.10
2019-01-30T11:02:02.604Z,2.00
2019-01-30T11:03:07.905Z,1.80
2019-01-30T11:04:13.108Z,1.70
2019-01-30T11:05:18.314Z,1.70
2019-01-30T11:06:24.655Z,1.70
2019-01-30T11:07:29.808Z,1.70
2019-01-30T11:08:35.113Z,1.50
2019-01-30T11:09:40.372Z,1.50
2019-01-30T11:10:45.522Z,1.40
2019-01-30T11:11:50.678Z,1.40
2019-01-30T11:12:55.906Z,1.40
2019-01-30T11:14:01.189Z,1.30
2019-01-30T11:15:08.321Z,1.20
2019-01-30T11:16:13.456Z,1.20
2019-01-30T11:17:18.534Z,1.20
2019-01-30T11:18:23.695Z,1.10
2019-01-30T11:19:28.987Z,1.10
2019-01-30T11:20:34.237Z,1.00
2019-01-30T11:21:39.504Z,1.00
2019-01-30T11:22:45.097Z,1.00
2019-01-30T11:23:50.472Z,1.00
2019-01-30T11:24:55.877Z,1.00
2019-01-30T11:26:01.206Z,1.00
2019-01-30T11:27:06.480Z,1.00
2019-01-30T11:28:11.743Z,1.00
2019-01-30T11:29:17.100Z,1.00
2019-01-30T11:30:25.978Z,1.00
2019-01-30T11:31:31.284Z,1.00
2019-01-30T11:32:38.984Z,1.00
2019-01-30T11:33:44.264Z,1.00
2019-01-30T11:34:52.125Z,1.00
2019-01-30T11:35:58.336Z,1.00
2019-01-30T11:37:03.876Z,1.00
2019-01-30T11:38:12.089Z,0.90
2019-01-30T11:39:17.550Z,0.90
2019-01-30T11:40:22.912Z,0.90
2019-01-30T11:41:28.317Z,0.90
2019-01-30T11:42:33.680Z,0.90
2019-01-30T11:43:39.054Z,0.90
2019-01-30T11:44:44.267Z,0.90
2019-01-30T11:45:49.511Z,0.90
2019-01-30T11:46:55.097Z,1.00
2019-01-30T11:48:00.499Z,1.00
2019-01-30T11:49:05.854Z,1.00
2019-01-30T11:50:12.107Z,0.90
2019-01-30T11:51:18.872Z,0.90
2019-01-30T11:52:23.977Z,0.90
2019-01-30T11:53:29.305Z,1.00
2019-01-30T11:54:38.819Z,1.00
2019-01-30T11:55:44.468Z,1.00
2019-01-30T11:56:49.700Z,1.00
2019-01-30T11:57:54.903Z,1.00
2019-01-30T11:59:00.980Z,1.10
2019-01-30T12:00:08.027Z,1.00
2019-01-30T12:01:13.238Z,1.10
2019-01-30T12:02:18.526Z,1.10
2019-01-30T12:03:23.831Z,1.10
2019-01-30T12:04:29.240Z,1.10
2019-01-30T12:05:34.851Z,1.20
2019-01-30T12:06:40.426Z,1.20
2019-01-30T12:07:45.731Z,1.20
2019-01-30T12:08:51.147Z,1.30
2019-01-30T12:09:57.428Z,1.30
2019-01-30T12:11:02.652Z,1.30
2019-01-30T12:12:07.872Z,1.40
2019-01-30T12:13:13.126Z,1.40
2019-01-30T12:14:18.377Z,1.40
2019-01-30T12:15:23.782Z,1.40
2019-01-30T12:16:29.198Z,1.40
2019-01-30T12:17:34.339Z,1.30
2019-01-30T12:18:39.713Z,1.40
2019-01-30T12:19:44.960Z,1.30
2019-01-30T12:20:51.942Z,1.30
2019-01-30T12:21:57.305Z,1.20
2019-01-30T12:23:02.676Z,1.20
2019-01-30T12:24:07.796Z,1.20
2019-01-30T12:25:15.159Z,1.30
2019-01-30T12:26:21.406Z,1.30
2019-01-30T12:27:26.496Z,1.30
2019-01-30T12:28:31.663Z,1.20
2019-01-30T12:29:36.923Z,1.30
2019-01-30T12:30:42.193Z,1.40
2019-01-30T12:31:47.455Z,1.30
2019-01-30T12:32:53.708Z,1.30
2019-01-30T12:33:59.272Z,1.30
2019-01-30T12:35:04.835Z,1.30
2019-01-30T12:36:10.092Z,1.30
2019-01-30T12:37:15.167Z,1.30
2019-01-30T12:38:21.469Z,1.30
2019-01-30T12:39:26.671Z,1.30
2019-01-30T12:40:31.830Z,1.30
2019-01-30T12:41:36.957Z,1.30
2019-01-30T12:42:42.350Z,1.40
2019-01-30T12:43:47.632Z,1.40
2019-01-30T12:44:53.313Z,1.40
2019-01-30T12:45:58.532Z,1.40
2019-01-30T12:47:03.793Z,1.40
2019-01-30T12:48:10.796Z,1.40
2019-01-30T12:49:16.108Z,1.40
2019-01-30T12:50:21.477Z,1.30
2019-01-30T12:51:26.632Z,1.30
2019-01-30T12:52:31.919Z,1.30
2019-01-30T12:53:37.146Z,1.30
2019-01-30T12:54:42.405Z,1.30
2019-01-30T12:55:47.539Z,1.20
2019-01-30T12:56:52.731Z,1.30
2019-01-30T12:57:57.971Z,1.30
2019-01-30T12:59:03.139Z,1.30
2019-01-30T13:00:11.474Z,1.30
2019-01-30T13:01:16.823Z,1.30
2019-01-30T13:02:42.794Z,1.30
2019-01-30T13:03:48.000Z,1.30
2019-01-30T13:04:53.092Z,1.30
2019-01-30T13:05:58.275Z,1.30
2019-01-30T13:07:03.479Z,1.30
2019-01-30T13:08:08.946Z,1.30
2019-01-30T13:09:14.199Z,1.30
2019-01-30T13:10:19.347Z,1.20
2019-01-30T13:11:24.548Z,1.20
2019-01-30T13:12:29.629Z,1.30
2019-01-30T13:13:34.867Z,1.20
2019-01-30T13:14:40.072Z,1.30
2019-01-30T13:15:45.281Z,1.30
2019-01-30T13:16:50.581Z,1.30
2019-01-30T13:17:55.898Z,1.30
2019-01-30T13:19:01.071Z,1.30
2019-01-30T13:20:11.245Z,1.30
2019-01-30T13:21:16.601Z,1.30
2019-01-30T13:22:21.834Z,1.30
2019-01-30T13:23:27.061Z,1.30
2019-01-30T13:24:32.304Z,1.30
2019-01-30T13:25:37.561Z,1.30
2019-01-30T13:26:42.905Z,1.30
2019-01-30T13:27:48.167Z,1.20
2019-01-30T13:28:53.428Z,1.20
2019-01-30T13:29:58.720Z,1.20
2019-01-30T13:31:04.141Z,1.20
2019-01-30T13:32:09.316Z,1.20
2019-01-30T13:33:14.606Z,1.30
2019-01-30T13:34:19.848Z,1.20
2019-01-30T13:35:25.040Z,1.20
2019-01-30T13:36:30.199Z,1.20
2019-01-30T13:37:35.469Z,1.30
2019-01-30T13:38:40.686Z,1.20
2019-01-30T13:39:45.846Z,1.30
2019-01-30T13:40:50.992Z,1.30
2019-01-30T13:41:56.304Z,1.30
2019-01-30T13:43:01.598Z,1.30
2019-01-30T13:44:06.879Z,1.30
2019-01-30T13:45:12.296Z,1.40
2019-01-30T13:46:17.618Z,1.40
2019-01-30T13:47:22.879Z,1.40
2019-01-30T13:48:28.033Z,1.40
2019-01-30T13:49:33.220Z,1.40
2019-01-30T13:50:38.515Z,1.40
2019-01-30T13:51:43.858Z,1.30
2019-01-30T13:52:49.098Z,1.40
2019-01-30T13:53:54.222Z,1.40
2019-01-30T13:54:59.368Z,1.40
2019-01-30T13:56:05.646Z,1.40
2019-01-30T13:57:10.799Z,1.40
2019-01-30T13:58:16.007Z,1.40
2019-01-30T13:59:21.159Z,1.40
2019-01-30T14:00:28.902Z,1.40
2019-01-30T14:01:34.135Z,1.40
2019-01-30T14:02:39.434Z,1.50
2019-01-30T14:03:44.588Z,1.50
2019-01-30T14:04:59.125Z,1.40
2019-01-30T14:05:56.684Z,1.40
2019-01-30T14:07:01.847Z,1.40
2019-01-30T14:08:08.928Z,1.40
2019-01-30T14:09:14.119Z,1.40
2019-01-30T14:10:19.449Z,1.40
2019-01-30T14:11:24.640Z,1.40
2019-01-30T14:12:29.939Z,1.40
2019-01-30T14:13:35.203Z,1.40
2019-01-30T14:14:40.526Z,1.40
2019-01-30T14:15:45.863Z,1.40
2019-01-30T14:16:51.039Z,1.40
2019-01-30T14:17:56.262Z,1.40
2019-01-30T14:19:01.522Z,1.40
2019-01-30T14:20:07.660Z,1.40
2019-01-30T14:21:12.979Z,1.40
2019-01-30T14:22:18.128Z,1.40
2019-01-30T14:23:23.436Z,1.40
2019-01-30T14:24:28.699Z,1.40
2019-01-30T14:25:34.966Z,1.40
2019-01-30T14:26:40.365Z,1.40
2019-01-30T14:27:45.562Z,1.40
2019-01-30T14:28:50.748Z,1.40
2019-01-30T14:29:58.344Z,1.40
2019-01-30T14:31:02.903Z,1.40
2019-01-30T14:32:08.239Z,1.40
2019-01-30T14:33:13.471Z,1.50
2019-01-30T14:34:18.636Z,1.50
2019-01-30T14:35:25.436Z,1.50
2019-01-30T14:36:30.783Z,1.50
2019-01-30T14:37:36.055Z,1.50
2019-01-30T14:38:41.304Z,1.40
2019-01-30T14:39:46.722Z,1.40
2019-01-30T14:40:52.096Z,1.40
2019-01-30T14:41:57.372Z,1.40
2019-01-30T14:43:02.713Z,1.40
2019-01-30T14:44:08.003Z,1.40
2019-01-30T14:45:14.846Z,1.40
2019-01-30T14:46:20.744Z,1.40
2019-01-30T14:47:26.014Z,1.40
2019-01-30T14:48:31.225Z,1.40
2019-01-30T14:49:36.362Z,1.30
2019-01-30T14:50:44.661Z,1.40
2019-01-30T14:51:50.000Z,1.40
2019-01-30T14:52:55.281Z,1.40
2019-01-30T14:54:00.536Z,1.40
2019-01-30T14:55:06.740Z,1.40
2019-01-30T14:56:12.019Z,1.40
2019-01-30T14:57:17.324Z,1.50
2019-01-30T14:58:24.856Z,1.50
2019-01-30T14:59:29.615Z,1.50
2019-01-30T15:00:35.168Z,1.40
2019-01-30T15:01:40.615Z,1.50
2019-01-30T15:02:46.001Z,1.40
2019-01-30T15:03:51.254Z,1.40
2019-01-30T15:04:56.611Z,1.40
2019-01-30T15:06:02.001Z,1.40
2019-01-30T15:07:07.420Z,1.40
2019-01-30T15:08:12.624Z,1.40
2019-01-30T15:09:17.827Z,1.40
2019-01-30T15:10:23.210Z,1.40
2019-01-30T15:11:28.512Z,1.40
2019-01-30T15:12:33.816Z,1.40
2019-01-30T15:13:38.979Z,1.40
2019-01-30T15:14:44.344Z,1.40
2019-01-30T15:15:49.518Z,1.40
2019-01-30T15:16:54.883Z,1.40
2019-01-30T15:18:00.190Z,1.40
2019-01-30T15:19:06.076Z,1.40
2019-01-30T15:20:14.994Z,1.50
2019-01-30T15:21:20.310Z,1.40
2019-01-30T15:22:25.506Z,1.40
2019-01-30T15:23:31.744Z,1.40
2019-01-30T15:24:37.023Z,1.40
2019-01-30T15:25:42.348Z,1.40
2019-01-30T15:26:47.654Z,1.40
2019-01-30T15:27:52.915Z,1.40
2019-01-30T15:28:58.009Z,1.40
2019-01-30T15:30:03.207Z,1.40
2019-01-30T15:31:08.642Z,1.30
2019-01-30T15:32:13.905Z,1.40
2019-01-30T15:33:19.180Z,1.40
2019-01-30T15:34:24.333Z,1.40
2019-01-30T15:35:33.631Z,1.40
2019-01-30T15:36:36.610Z,1.50
2019-01-30T15:37:42.009Z,1.50
2019-01-30T15:38:47.293Z,1.50
2019-01-30T15:39:52.565Z,1.50